CST,Max TemperatureF,Mean TemperatureF,Min TemperatureF,Max Dew PointF,MeanDew PointF,Min DewpointF,Max Humidity, Mean Humidity, Min Humidity, Max Sea Level PressureIn, Mean Sea Level PressureIn, Min Sea Level PressureIn, Max VisibilityMiles, Mean VisibilityMiles, Min VisibilityMiles, Max Wind SpeedMPH, Mean Wind SpeedMPH, Max Gust SpeedMPH,PrecipitationIn, CloudCover, Events, WindDirDegrees
2013-1-1,77,63,48,65,57,48,93,75,57,30.13,30.03,29.96,10,10,10,21,8,28,0.00,4,,192
2013-1-2,69,61,53,66,55,45,93,79,64,30.13,30.03,29.94,10,10,9,15,7,20,0.01,8,Rain,348
2013-1-3,53,46,39,45,43,36,93,82,71,30.32,30.22,30.13,10,8,5,14,5,20,0.34,6,Rain,2
2013-1-4,56,46,36,41,37,32,92,72,51,30.38,30.34,30.30,10,10,10,10,3,13,0.00,0,,10
2013-1-5,56,46,36,45,35,29,93,66,38,30.39,30.32,30.22,10,10,9,12,4,13,0.08,2,Rain,50
2013-1-6,56,51,45,45,41,38,92,72,51,30.26,30.22,30.17,10,10,10,10,4,14,0.00,5,,14
2013-1-7,61,51,40,41,38,35,86,63,39,30.33,30.27,30.24,10,10,10,15,7,22,0.00,2,,54
2013-1-8,69,57,45,56,48,40,90,74,58,30.30,30.24,30.19,10,10,9,12,6,,0.00,5,Rain,57
2013-1-9,70,65,60,64,61,57,97,88,78,30.32,30.28,30.22,10,9,6,13,7,15,0.00,7,,75
2013-1-10,80,71,62,67,64,60,100,79,58,30.30,30.26,30.22,10,8,4,16,5,22,0.00,6,,122
2013-1-11,81,71,60,64,62,59,100,76,51,30.21,30.16,30.10,10,10,6,20,6,26,T,2,Rain,165
2013-1-12,79,69,58,65,61,57,100,76,52,30.17,30.12,30.05,10,7,0,16,5,20,0.00,4,Fog,163
2013-1-13,80,72,64,66,63,59,100,83,50,30.10,30.06,30.02,10,9,2,20,7,24,0.00,5,,169
2013-1-14,81,74,66,66,64,60,100,82,52,30.15,30.10,30.07,10,10,7,14,7,,0.00,5,,178
2013-1-15,79,72,64,65,64,62,100,79,58,30.10,30.04,30.00,10,9,6,17,9,22,0.00,7,,176
2013-1-16,81,73,65,68,65,64,93,76,58,30.04,29.98,29.92,10,10,5,22,9,28,0.05,7,Rain,202
2013-1-17,65,54,42,64,43,30,93,77,61,30.26,30.05,29.91,10,10,4,29,15,37,0.03,8,Rain,269
2013-1-18,60,48,36,36,33,29,92,62,31,30.47,30.39,30.27,10,10,10,15,6,21,0.00,1,,28
2013-1-19,64,50,35,46,38,31,93,70,46,30.41,30.32,30.23,10,10,6,10,2,14,0.00,3,,32
2013-1-20,69,56,42,45,42,39,92,65,37,30.26,30.18,30.11,10,10,10,12,2,16,0.00,1,,340
2013-1-21,67,52,37,43,39,36,100,66,32,30.20,30.14,30.09,10,10,10,12,3,14,0.00,0,,332
2013-1-22,59,47,35,37,28,21,82,53,24,30.35,30.29,30.17,10,10,10,13,4,17,0.00,0,,356
2013-1-23,63,47,31,44,34,27,92,64,36,30.44,30.35,30.29,10,10,10,10,2,13,0.00,1,,224
2013-1-24,74,58,42,52,48,40,93,67,41,30.32,30.28,30.23,10,10,7,18,5,23,0.00,1,,288
2013-1-25,73,60,47,53,47,38,93,67,41,30.33,30.24,30.17,10,10,7,17,7,24,0.00,2,,190
2013-1-26,76,63,50,58,54,48,96,75,53,30.26,30.21,30.17,10,9,2,12,4,17,0.00,2,,304
2013-1-27,73,60,46,53,46,37,96,68,40,30.34,30.29,30.26,10,9,1,10,5,14,0.00,2,,67
2013-1-28,77,67,56,60,56,52,93,72,50,30.34,30.28,30.21,10,10,10,14,6,18,0.00,4,,137
2013-1-29,82,70,58,65,61,57,93,71,48,30.19,30.09,29.98,10,10,10,20,8,24,0.00,6,,160
2013-1-30,80,65,49,70,61,36,90,79,67,30.02,29.81,29.64,10,9,0,38,17,53,0.45,8,Fog-Rain-Thunderstorm,218
2013-1-31,58,48,37,33,28,21,85,55,24,30.28,30.19,30.05,10,10,10,22,7,28,0.00,0,,310